createdAt,value
2023-02-16T00:01:56.558Z,34.40
2023-02-16T00:04:27.815Z,38.77
2023-02-16T00:06:57.868Z,37.00
2023-02-16T00:09:30.227Z,34.50
2023-02-16T00:12:17.147Z,35.00
2023-02-16T00:14:50.822Z,38.07
2023-02-16T00:17:18.501Z,36.10
2023-02-16T00:19:46.185Z,38.37
2023-02-16T00:22:14.303Z,37.60
2023-02-16T00:24:41.868Z,37.57
2023-02-16T00:27:13.444Z,34.50
2023-02-16T00:29:41.955Z,35.20
2023-02-16T00:32:14.046Z,37.57
2023-02-16T00:34:46.221Z,37.67
2023-02-16T00:37:15.872Z,39.00
2023-02-16T00:39:45.444Z,33.70
2023-02-16T00:42:18.977Z,35.90
2023-02-16T00:44:48.895Z,38.40
2023-02-16T00:47:22.457Z,34.90
2023-02-16T00:49:52.006Z,37.97
2023-02-16T00:52:35.421Z,35.70
2023-02-16T00:55:16.551Z,38.30
2023-02-16T00:57:46.999Z,36.77
2023-02-16T01:00:26.667Z,34.57
2023-02-16T01:03:04.913Z,40.87
2023-02-16T01:05:33.102Z,38.20
2023-02-16T01:08:19.818Z,36.77
2023-02-16T01:11:07.578Z,38.03
2023-02-16T01:13:53.787Z,36.60
2023-02-16T01:16:23.803Z,35.67
2023-02-16T01:18:53.387Z,39.47
2023-02-16T01:21:22.817Z,37.47
2023-02-16T01:23:51.254Z,40.23
2023-02-16T01:26:20.514Z,38.53
2023-02-16T01:28:48.605Z,37.90
2023-02-16T01:31:18.109Z,36.97
2023-02-16T01:33:51.807Z,38.30
2023-02-16T01:36:27.134Z,39.83
2023-02-16T01:38:54.787Z,39.07
2023-02-16T01:41:31.538Z,38.07
2023-02-16T01:44:04.934Z,38.53
2023-02-16T01:46:51.344Z,37.27
2023-02-16T01:49:21.300Z,37.30
2023-02-16T01:52:02.909Z,39.30
2023-02-16T01:54:44.920Z,35.80
2023-02-16T01:57:18.781Z,37.40
2023-02-16T01:59:49.994Z,38.20
2023-02-16T02:02:22.733Z,37.23
2023-02-16T02:05:19.286Z,37.30
2023-02-16T02:07:48.285Z,39.20
2023-02-16T02:10:31.314Z,37.70
2023-02-16T02:13:04.666Z,38.17
2023-02-16T02:15:32.926Z,37.67
2023-02-16T02:18:00.900Z,35.30
2023-02-16T02:21:06.196Z,36.30
2023-02-16T02:24:04.316Z,35.80
2023-02-16T02:26:37.690Z,37.90
2023-02-16T02:29:25.642Z,41.27
2023-02-16T02:31:53.603Z,40.87
2023-02-16T02:34:40.535Z,40.33
2023-02-16T02:37:21.558Z,40.13
2023-02-16T02:39:56.866Z,39.20
2023-02-16T02:42:30.664Z,38.67
2023-02-16T02:45:05.334Z,38.23
2023-02-16T02:47:44.110Z,39.10
2023-02-16T02:50:31.755Z,37.50
2023-02-16T02:53:02.739Z,37.97
2023-02-16T02:55:51.158Z,39.53
2023-02-16T02:58:43.156Z,37.20
2023-02-16T03:01:11.983Z,38.17
2023-02-16T03:03:59.816Z,39.70
2023-02-16T03:06:31.679Z,38.17
2023-02-16T03:09:05.531Z,41.87
2023-02-16T03:11:51.648Z,36.80
2023-02-16T03:14:33.737Z,38.67
2023-02-16T03:17:25.081Z,38.53
2023-02-16T03:20:11.714Z,36.23
2023-02-16T03:22:59.076Z,36.10
2023-02-16T03:25:48.572Z,35.50
2023-02-16T03:28:37.455Z,36.97
2023-02-16T03:31:08.337Z,36.57
2023-02-16T03:33:38.488Z,37.33
2023-02-16T03:36:06.260Z,36.00
2023-02-16T03:38:33.558Z,35.87
2023-02-16T03:41:00.811Z,35.07
2023-02-16T03:43:29.843Z,36.80
2023-02-16T03:45:57.673Z,36.70
2023-02-16T03:48:26.985Z,36.17
2023-02-16T03:50:56.321Z,36.07
2023-02-16T03:53:23.902Z,35.33
2023-02-16T03:55:51.816Z,34.10
2023-02-16T03:58:21.786Z,36.50
2023-02-16T04:00:59.300Z,36.60
2023-02-16T04:03:30.459Z,39.63
2023-02-16T04:05:57.741Z,36.80
2023-02-16T04:08:24.969Z,35.93
2023-02-16T04:10:52.234Z,38.00
2023-02-16T04:13:19.394Z,37.67
2023-02-16T04:15:46.582Z,38.30
2023-02-16T04:18:13.904Z,39.40
2023-02-16T04:20:41.670Z,36.27
2023-02-16T04:23:08.908Z,36.77
2023-02-16T04:25:36.549Z,33.60
2023-02-16T04:28:03.716Z,34.00
2023-02-16T04:30:32.205Z,34.93
2023-02-16T04:33:07.083Z,33.53
2023-02-16T04:35:36.518Z,33.07
2023-02-16T04:38:03.680Z,32.47
2023-02-16T04:40:32.415Z,31.50
2023-02-16T04:43:01.685Z,32.87
2023-02-16T04:45:29.133Z,35.67
2023-02-16T04:47:56.308Z,32.17
2023-02-16T04:50:24.847Z,30.63
2023-02-16T04:52:52.096Z,32.43
2023-02-16T04:55:20.343Z,33.33
2023-02-16T04:57:48.155Z,31.20
2023-02-16T05:00:17.849Z,31.60
2023-02-16T05:02:46.225Z,32.23
2023-02-16T05:05:16.957Z,30.67
2023-02-16T05:07:44.900Z,30.33
2023-02-16T05:10:12.183Z,30.10
2023-02-16T05:12:58.257Z,29.50
2023-02-16T05:15:25.480Z,31.07
2023-02-16T05:17:53.052Z,31.60
2023-02-16T05:20:41.311Z,29.90
2023-02-16T05:23:08.556Z,30.60
2023-02-16T05:25:36.807Z,31.00
2023-02-16T05:28:04.047Z,32.63
2023-02-16T05:30:34.482Z,32.27
2023-02-16T05:33:02.868Z,29.97
2023-02-16T05:35:30.118Z,30.23
2023-02-16T05:37:58.308Z,30.07
2023-02-16T05:40:25.937Z,31.30
2023-02-16T05:42:54.359Z,31.90
2023-02-16T05:45:26.919Z,29.83
2023-02-16T05:47:55.605Z,30.77
2023-02-16T05:50:23.812Z,28.83
2023-02-16T05:52:50.998Z,31.13
2023-02-16T05:55:19.314Z,29.83
2023-02-16T05:57:46.877Z,32.00
2023-02-16T06:00:14.622Z,28.50
2023-02-16T06:02:43.193Z,29.97
2023-02-16T06:05:10.600Z,28.70
2023-02-16T06:07:38.723Z,30.53
2023-02-16T06:10:06.251Z,28.73
2023-02-16T06:12:34.574Z,30.33
2023-02-16T06:15:03.389Z,27.67
2023-02-16T06:17:31.018Z,30.13
2023-02-16T06:19:59.220Z,28.90
2023-02-16T06:22:28.505Z,28.00
2023-02-16T06:24:56.885Z,29.17
2023-02-16T06:27:24.736Z,30.80
2023-02-16T06:29:52.891Z,29.10
2023-02-16T06:32:20.793Z,29.83
2023-02-16T06:34:48.073Z,28.93
2023-02-16T06:37:15.359Z,31.17
2023-02-16T06:39:42.533Z,29.43
2023-02-16T06:42:09.844Z,28.73
2023-02-16T06:44:38.446Z,29.70
2023-02-16T06:47:05.695Z,29.40
2023-02-16T06:49:51.585Z,31.53
2023-02-16T06:52:21.193Z,27.43
2023-02-16T06:54:48.446Z,31.37
2023-02-16T06:57:15.698Z,30.03
2023-02-16T06:59:45.647Z,29.23
2023-02-16T07:02:13.821Z,31.40
2023-02-16T07:04:43.123Z,30.40
2023-02-16T07:07:12.595Z,29.67
2023-02-16T07:09:59.862Z,30.80
2023-02-16T07:12:45.907Z,29.60
2023-02-16T07:15:14.741Z,33.37
2023-02-16T07:18:01.687Z,29.00
2023-02-16T07:20:47.908Z,31.10
2023-02-16T07:23:15.154Z,27.60
2023-02-16T07:26:01.113Z,28.10
2023-02-16T07:28:29.113Z,27.47
2023-02-16T07:30:56.421Z,27.20
2023-02-16T07:33:45.114Z,28.20
2023-02-16T07:36:12.769Z,29.10
2023-02-16T07:38:42.470Z,27.83
2023-02-16T07:41:11.970Z,25.40
2023-02-16T07:43:58.105Z,26.30
2023-02-16T07:46:26.140Z,25.70
2023-02-16T07:48:56.110Z,26.70
2023-02-16T07:51:28.691Z,25.73
2023-02-16T07:53:57.744Z,27.30
2023-02-16T07:56:44.672Z,25.50
2023-02-16T07:59:30.885Z,26.40
2023-02-16T08:01:58.494Z,25.20
2023-02-16T08:04:27.984Z,23.90
2023-02-16T08:07:15.047Z,25.60
2023-02-16T08:09:43.282Z,26.27
2023-02-16T08:12:13.658Z,27.20
2023-02-16T08:14:41.952Z,24.97
2023-02-16T08:17:27.511Z,25.80
2023-02-16T08:20:00.312Z,22.87
2023-02-16T08:22:29.294Z,23.77
2023-02-16T08:24:56.778Z,22.67
2023-02-16T08:27:29.255Z,25.90
2023-02-16T08:29:57.376Z,23.97
2023-02-16T08:32:25.353Z,23.07
2023-02-16T08:34:53.645Z,24.50
2023-02-16T08:37:40.604Z,24.37
2023-02-16T08:40:28.168Z,25.60
2023-02-16T08:42:55.744Z,25.30
2023-02-16T08:45:47.410Z,24.13
2023-02-16T08:48:37.098Z,25.30
2023-02-16T08:51:07.027Z,26.37
2023-02-16T08:53:35.221Z,24.50
2023-02-16T08:56:03.931Z,24.53
2023-02-16T08:58:33.038Z,22.77
2023-02-16T09:01:04.085Z,23.80
2023-02-16T09:03:32.826Z,24.83
2023-02-16T09:06:03.148Z,27.73
2023-02-16T09:08:33.133Z,27.27
2023-02-16T09:11:06.590Z,25.87
2023-02-16T09:13:35.604Z,26.10
2023-02-16T09:16:06.988Z,25.70
2023-02-16T09:18:36.749Z,25.00
2023-02-16T09:21:24.381Z,23.30
2023-02-16T09:24:11.550Z,24.67
2023-02-16T09:26:42.462Z,23.97
2023-02-16T09:29:10.810Z,24.17
2023-02-16T09:31:39.855Z,25.80
2023-02-16T09:34:11.031Z,26.00
2023-02-16T09:36:56.664Z,26.50
2023-02-16T09:39:24.252Z,29.30
2023-02-16T09:41:58.433Z,25.87
2023-02-16T09:44:37.909Z,27.43
2023-02-16T09:47:06.791Z,27.53
2023-02-16T09:49:42.330Z,26.80
2023-02-16T09:52:10.028Z,28.50
2023-02-16T09:54:49.837Z,26.97
2023-02-16T09:57:46.386Z,25.70
2023-02-16T10:00:14.414Z,27.63
2023-02-16T10:02:51.197Z,25.80
2023-02-16T10:05:56.496Z,27.40
2023-02-16T10:08:33.070Z,26.53
2023-02-16T10:11:08.540Z,28.23
2023-02-16T10:16:33.080Z,28.40
2023-02-16T10:19:02.751Z,25.90
2023-02-16T10:21:31.782Z,27.53
2023-02-16T10:24:02.362Z,26.60
2023-02-16T10:26:35.135Z,29.77
2023-02-16T10:29:12.190Z,27.50
2023-02-16T10:31:42.779Z,28.80
2023-02-16T10:34:47.517Z,28.73
2023-02-16T10:37:30.720Z,28.80
2023-02-16T10:40:14.609Z,27.53
2023-02-16T10:42:47.333Z,27.40
2023-02-16T10:45:17.733Z,27.43
2023-02-16T10:47:47.118Z,26.27
2023-02-16T10:50:37.679Z,25.90
2023-02-16T10:53:07.345Z,28.10
2023-02-16T10:55:37.709Z,26.97
2023-02-16T10:58:26.948Z,26.90
2023-02-16T11:01:02.494Z,26.80
2023-02-16T11:03:35.841Z,27.63
2023-02-16T11:06:18.734Z,25.37
2023-02-16T11:08:51.356Z,26.77
2023-02-16T11:11:19.873Z,27.17
2023-02-16T11:13:48.718Z,27.80
2023-02-16T11:16:34.722Z,28.77
2023-02-16T11:19:07.634Z,27.57
2023-02-16T11:21:44.146Z,26.53
2023-02-16T11:24:15.447Z,26.17
2023-02-16T11:26:43.753Z,26.10
2023-02-16T11:29:19.303Z,27.90
2023-02-16T11:31:48.785Z,27.10
2023-02-16T11:34:36.414Z,27.10
2023-02-16T11:37:26.105Z,30.63
2023-02-16T11:39:56.424Z,29.50
2023-02-16T11:42:31.176Z,28.53
2023-02-16T11:45:01.740Z,28.30
2023-02-16T11:47:39.380Z,27.90
2023-02-16T11:50:09.882Z,29.30
2023-02-16T11:52:37.570Z,27.97
2023-02-16T11:55:05.204Z,29.37
2023-02-16T11:57:35.664Z,29.50
2023-02-16T12:00:24.442Z,28.40
2023-02-16T12:03:05.245Z,28.37
2023-02-16T12:05:52.869Z,28.43
2023-02-16T12:08:32.697Z,28.27
2023-02-16T12:11:15.217Z,27.87
2023-02-16T12:13:54.291Z,29.87
2023-02-16T12:16:38.473Z,26.43
2023-02-16T12:19:19.951Z,28.70
2023-02-16T12:21:50.073Z,28.37
2023-02-16T12:24:34.747Z,27.90
2023-02-16T12:27:05.118Z,26.37
2023-02-16T12:29:53.963Z,29.13
2023-02-16T12:32:42.205Z,28.20
2023-02-16T12:35:22.334Z,28.67
2023-02-16T12:38:06.984Z,29.07
2023-02-16T12:40:52.686Z,29.67
2023-02-16T12:43:40.885Z,30.00
2023-02-16T12:46:29.068Z,30.10
2023-02-16T12:49:07.369Z,29.43
2023-02-16T12:51:39.996Z,28.90
2023-02-16T12:54:11.273Z,27.80
2023-02-16T12:56:45.092Z,30.73
2023-02-16T12:59:23.218Z,29.50
2023-02-16T13:01:53.782Z,28.03
2023-02-16T13:04:22.201Z,28.60
2023-02-16T13:07:01.026Z,30.63
2023-02-16T13:09:41.988Z,29.17
2023-02-16T13:12:21.505Z,29.43
2023-02-16T13:14:56.488Z,30.20
2023-02-16T13:17:39.258Z,32.03
2023-02-16T13:20:15.695Z,27.50
2023-02-16T13:22:47.602Z,29.77
2023-02-16T13:25:22.227Z,30.13
2023-02-16T13:28:11.007Z,31.57
2023-02-16T13:30:48.495Z,29.60
2023-02-16T13:33:28.776Z,31.90
2023-02-16T13:36:07.777Z,28.80
2023-02-16T13:38:58.318Z,31.87
2023-02-16T13:41:35.130Z,30.63
2023-02-16T13:44:12.845Z,30.00
2023-02-16T13:46:50.354Z,30.40
2023-02-16T13:49:35.918Z,30.43
2023-02-16T13:52:08.557Z,30.30
2023-02-16T13:54:40.679Z,31.00
2023-02-16T13:57:14.762Z,31.20
2023-02-16T13:59:50.826Z,30.73
2023-02-16T14:02:38.037Z,31.00
2023-02-16T14:05:12.654Z,30.90
2023-02-16T14:07:45.856Z,31.73
2023-02-16T14:10:14.878Z,28.30
2023-02-16T14:12:44.893Z,29.90
2023-02-16T14:15:21.462Z,33.40
2023-02-16T14:17:48.919Z,30.70
2023-02-16T14:20:19.949Z,30.57
2023-02-16T14:22:51.113Z,31.70
2023-02-16T14:25:25.655Z,31.93
2023-02-16T14:28:00.197Z,30.70
2023-02-16T14:30:29.390Z,30.47
2023-02-16T14:33:16.563Z,30.00
2023-02-16T14:35:45.538Z,30.30
2023-02-16T14:38:17.891Z,31.63
2023-02-16T14:40:55.368Z,30.17
2023-02-16T14:43:28.583Z,31.00
2023-02-16T14:46:08.433Z,28.77
2023-02-16T14:48:58.363Z,29.50
2023-02-16T14:51:29.404Z,30.57
2023-02-16T14:54:19.580Z,30.07
2023-02-16T14:57:06.452Z,27.00
2023-02-16T14:59:41.482Z,29.60
2023-02-16T15:02:44.447Z,30.10
2023-02-16T15:05:17.712Z,31.47
2023-02-16T15:07:52.920Z,28.90
2023-02-16T15:10:26.553Z,26.80
2023-02-16T15:12:56.646Z,31.57
2023-02-16T15:15:27.902Z,29.17
2023-02-16T15:17:56.014Z,26.13
2023-02-16T15:20:34.122Z,29.63
2023-02-16T15:23:17.650Z,28.47
2023-02-16T15:25:54.474Z,30.10
2023-02-16T15:28:25.057Z,28.20
2023-02-16T15:30:56.076Z,30.13
2023-02-16T15:33:28.157Z,28.17
2023-02-16T15:36:08.165Z,28.57
2023-02-16T15:38:38.084Z,29.73
2023-02-16T15:41:17.623Z,28.77
2023-02-16T15:43:47.486Z,28.03
2023-02-16T15:46:32.070Z,29.73
2023-02-16T15:49:00.610Z,28.87
2023-02-16T15:51:36.033Z,30.13
2023-02-16T15:54:05.714Z,31.20
2023-02-16T15:56:45.692Z,29.50
2023-02-16T15:59:28.767Z,29.67
2023-02-16T16:02:03.673Z,26.30
2023-02-16T16:04:32.791Z,29.00
2023-02-16T16:07:07.123Z,29.73
2023-02-16T16:09:35.777Z,31.00
2023-02-16T16:12:05.656Z,28.77
2023-02-16T16:14:34.747Z,32.63
2023-02-16T16:17:05.831Z,27.70
2023-02-16T16:19:34.871Z,27.60
2023-02-16T16:22:20.069Z,29.00
2023-02-16T16:24:49.620Z,30.47
2023-02-16T16:27:28.262Z,29.03
2023-02-16T16:30:10.880Z,25.97
2023-02-16T16:32:38.744Z,30.93
2023-02-16T16:35:30.793Z,28.10
2023-02-16T16:37:58.066Z,29.47
2023-02-16T16:40:28.374Z,28.47
2023-02-16T16:43:07.992Z,28.87
2023-02-16T16:45:45.699Z,29.67
2023-02-16T16:48:23.398Z,27.67
2023-02-16T16:50:52.540Z,28.53
2023-02-16T16:53:35.068Z,31.00
2023-02-16T16:56:02.612Z,29.97
2023-02-16T16:58:30.606Z,30.13
2023-02-16T17:00:59.701Z,31.37
2023-02-16T17:03:31.437Z,31.00
2023-02-16T17:06:07.345Z,30.50
2023-02-16T17:08:38.065Z,30.93
2023-02-16T17:11:08.857Z,34.20
2023-02-16T17:13:41.168Z,29.03
2023-02-16T17:16:17.961Z,30.90
2023-02-16T17:18:45.242Z,36.70
2023-02-16T17:21:15.700Z,41.07
2023-02-16T17:23:53.310Z,51.47
2023-02-16T17:26:23.884Z,39.80
2023-02-16T17:28:52.866Z,30.00
2023-02-16T17:31:23.559Z,30.10
2023-02-16T17:33:52.620Z,29.77
2023-02-16T17:36:25.795Z,30.10
2023-02-16T17:38:54.818Z,32.37
2023-02-16T17:41:23.979Z,30.70
2023-02-16T17:43:56.864Z,32.00
2023-02-16T17:46:26.767Z,31.00
2023-02-16T17:48:55.275Z,30.33
2023-02-16T17:51:23.826Z,30.20
2023-02-16T17:53:53.057Z,31.97
2023-02-16T17:56:22.009Z,31.13
2023-02-16T17:58:53.434Z,31.57
2023-02-16T18:01:21.129Z,32.07
2023-02-16T18:03:48.789Z,31.50
2023-02-16T18:06:23.730Z,31.23
2023-02-16T18:09:02.748Z,33.20
2023-02-16T18:11:36.257Z,30.37
2023-02-16T18:14:05.368Z,30.80
2023-02-16T18:16:33.085Z,30.03
2023-02-16T18:19:03.226Z,33.00
2023-02-16T18:21:32.583Z,32.00
2023-02-16T18:24:01.158Z,32.00
2023-02-16T18:26:35.106Z,32.43
2023-02-16T18:29:07.882Z,32.50
2023-02-16T18:31:42.825Z,33.80
2023-02-16T18:34:14.230Z,32.57
2023-02-16T18:36:44.569Z,33.77
2023-02-16T18:39:13.223Z,29.97
2023-02-16T18:41:42.094Z,31.50
2023-02-16T18:44:14.393Z,31.30
2023-02-16T18:46:47.857Z,34.30
2023-02-16T18:49:21.081Z,32.87
2023-02-16T18:51:50.765Z,30.20
2023-02-16T18:54:19.264Z,33.60
2023-02-16T18:56:47.643Z,31.97
2023-02-16T18:59:15.055Z,30.77
2023-02-16T19:01:44.954Z,32.00
2023-02-16T19:04:18.014Z,32.13
2023-02-16T19:06:49.665Z,31.27
2023-02-16T19:09:18.681Z,32.43
2023-02-16T19:11:46.491Z,29.47
2023-02-16T19:14:13.974Z,30.80
2023-02-16T19:16:49.719Z,30.83
2023-02-16T19:19:17.774Z,32.60
2023-02-16T19:21:47.704Z,33.37
2023-02-16T19:24:20.096Z,30.17
2023-02-16T19:26:48.485Z,34.60
2023-02-16T19:29:19.215Z,30.20
2023-02-16T19:31:48.754Z,32.10
2023-02-16T19:34:17.491Z,30.73
2023-02-16T19:36:45.763Z,30.73
2023-02-16T19:39:14.179Z,32.47
2023-02-16T19:41:43.861Z,29.87
2023-02-16T19:44:14.297Z,31.03
2023-02-16T19:46:44.201Z,28.70
2023-02-16T19:49:15.708Z,31.40
2023-02-16T19:51:43.295Z,29.10
2023-02-16T19:54:12.706Z,30.40
2023-02-16T19:56:41.592Z,32.40
2023-02-16T19:59:10.218Z,31.60
2023-02-16T20:01:39.472Z,30.70
2023-02-16T20:04:08.762Z,32.30
2023-02-16T20:06:39.309Z,34.47
2023-02-16T20:09:09.190Z,32.07
2023-02-16T20:11:41.817Z,29.90
2023-02-16T20:14:09.488Z,32.10
2023-02-16T20:16:37.820Z,30.67
2023-02-16T20:19:06.537Z,30.90
2023-02-16T20:21:34.958Z,30.60
2023-02-16T20:24:05.875Z,30.10
2023-02-16T20:26:38.842Z,29.87
2023-02-16T20:29:08.213Z,33.17
2023-02-16T20:31:40.652Z,30.57
2023-02-16T20:34:09.699Z,30.30
2023-02-16T20:36:39.942Z,31.13
2023-02-16T20:39:08.160Z,31.20
2023-02-16T20:41:37.296Z,30.70
2023-02-16T20:44:06.217Z,31.00
2023-02-16T20:46:33.998Z,31.20
2023-02-16T20:49:01.299Z,30.63
2023-02-16T20:51:29.718Z,33.50
2023-02-16T20:53:57.052Z,31.50
2023-02-16T20:56:26.440Z,30.77
2023-02-16T20:58:55.146Z,31.47
2023-02-16T21:01:29.543Z,32.33
2023-02-16T21:03:57.991Z,30.77
2023-02-16T21:06:28.196Z,31.27
2023-02-16T21:08:57.498Z,32.77
2023-02-16T21:11:26.282Z,31.70
2023-02-16T21:13:53.543Z,33.80
2023-02-16T21:16:24.257Z,33.60
2023-02-16T21:18:55.274Z,32.60
2023-02-16T21:21:22.552Z,31.00
2023-02-16T21:23:52.384Z,32.27
2023-02-16T21:26:20.430Z,32.60
2023-02-16T21:28:51.013Z,34.07
2023-02-16T21:31:20.394Z,32.60
2023-02-16T21:33:47.865Z,32.50
2023-02-16T21:36:16.525Z,33.77
2023-02-16T21:38:48.246Z,33.87
2023-02-16T21:41:25.228Z,34.90
2023-02-16T21:43:57.665Z,32.50
2023-02-16T21:46:29.302Z,32.57
2023-02-16T21:48:58.081Z,33.10
2023-02-16T21:51:28.494Z,33.47
2023-02-16T21:54:03.420Z,32.87
2023-02-16T21:56:40.962Z,31.53
2023-02-16T21:59:09.677Z,31.57
2023-02-16T22:01:43.082Z,32.87
2023-02-16T22:04:20.041Z,31.63
2023-02-16T22:06:48.806Z,33.20
2023-02-16T22:09:17.951Z,32.70
2023-02-16T22:11:46.903Z,32.13
2023-02-16T22:14:17.010Z,32.03
2023-02-16T22:16:47.300Z,32.30
2023-02-16T22:19:18.899Z,30.60
2023-02-16T22:21:52.358Z,33.03
2023-02-16T22:24:20.921Z,32.80
2023-02-16T22:26:51.493Z,31.67
2023-02-16T22:29:20.954Z,32.03
2023-02-16T22:31:49.476Z,31.17
2023-02-16T22:34:19.857Z,32.50
2023-02-16T22:36:47.565Z,30.10
2023-02-16T22:39:16.166Z,31.40
2023-02-16T22:41:46.763Z,32.50
2023-02-16T22:44:15.568Z,32.43
2023-02-16T22:46:45.328Z,31.07
2023-02-16T22:49:14.144Z,33.60
2023-02-16T22:51:41.850Z,31.73
2023-02-16T22:54:14.724Z,31.67
2023-02-16T22:56:44.066Z,32.47
2023-02-16T22:59:15.346Z,28.93
2023-02-16T23:01:43.736Z,32.03
2023-02-16T23:04:19.228Z,31.63
2023-02-16T23:06:49.011Z,32.70
2023-02-16T23:09:19.693Z,31.13
2023-02-16T23:11:48.999Z,32.73
2023-02-16T23:14:21.315Z,32.60
2023-02-16T23:16:55.088Z,31.57
2023-02-16T23:19:24.428Z,30.40
2023-02-16T23:21:52.425Z,31.10
2023-02-16T23:24:21.292Z,30.97
2023-02-16T23:26:51.123Z,29.40
2023-02-16T23:29:19.673Z,30.17
2023-02-16T23:31:49.213Z,30.07
2023-02-16T23:34:22.877Z,30.37
2023-02-16T23:36:55.195Z,30.43
2023-02-16T23:39:26.016Z,30.27
2023-02-16T23:41:55.418Z,29.13
2023-02-16T23:44:27.910Z,29.30
2023-02-16T23:46:55.551Z,31.23
2023-02-16T23:49:25.092Z,29.60
2023-02-16T23:51:57.690Z,30.33
2023-02-16T23:54:25.397Z,31.17
2023-02-16T23:56:53.756Z,29.77
2023-02-16T23:59:21.431Z,29.73
